Time;durP1;ratioP1;P1;durP2;ratioP2;P2;SDS_P1;SDS_P2;PMS_P1;PMS_P2;Temp;Humidity;BMP_temperature;BMP_pressure;BME280_temperature;BME280_humidity;BME280_pressure;Samples;Min_cycle;Max_cycle;Signal;HPM_P1;HPM_P2
2021/04/17 00:02:13;;;;;;;11.50;6.15;;;;;;;5.55;56.13;98181.97;4898073;29;19919;-76
2021/04/17 00:04:39;;;;;;;9.50;5.25;;;;;;;5.55;55.70;98174.66;4919092;29;20035;-76
2021/04/17 00:07:08;;;;;;;7.03;5.10;;;;;;;5.57;55.86;98177.97;4915584;29;20035;-76
2021/04/17 00:09:34;;;;;;;12.25;5.78;;;;;;;5.74;55.33;98180.53;4926734;29;20130;-76
2021/04/17 00:12:07;;;;;;;9.35;5.03;;;;;;;5.68;55.02;98168.00;4900652;29;20103;-76
2021/04/17 00:14:35;;;;;;;9.02;5.45;;;;;;;5.62;55.28;98166.31;4915525;29;20036;-77
2021/04/17 00:17:01;;;;;;;7.80;5.55;;;;;;;5.62;55.21;98166.31;4914862;29;20040;-76
2021/04/17 00:19:26;;;;;;;10.55;5.18;;;;;;;5.60;55.54;98168.47;4898033;29;20199;-76
2021/04/17 00:21:52;;;;;;;8.43;5.03;;;;;;;5.86;55.26;98171.16;4915014;29;20031;-76
2021/04/17 00:24:18;;;;;;;8.73;4.88;;;;;;;5.97;54.77;98158.50;4897734;29;20039;-76
2021/04/17 00:26:43;;;;;;;;;;;;;;;5.96;54.80;98156.84;4898128;29;20137;-76
2021/04/17 00:29:09;;;;;;;7.40;5.28;;;;;;;6.03;54.80;98157.44;4914797;29;19958;-77
2021/04/17 00:31:35;;;;;;;7.85;4.90;;;;;;;5.94;55.37;98150.88;4913086;29;20032;-76
2021/04/17 00:34:02;;;;;;;9.32;6.05;;;;;;;5.81;55.61;98151.28;4894972;29;20039;-76
2021/04/17 00:36:27;;;;;;;15.98;5.82;;;;;;;5.76;55.90;98124.91;4896490;29;20032;-76
2021/04/17 00:38:53;;;;;;;10.18;6.00;;;;;;;5.86;56.07;98140.47;4904639;29;20031;-76
2021/04/17 00:41:18;;;;;;;7.85;4.90;;;;;;;5.70;56.80;98136.81;4905554;29;20050;-76
2021/04/17 00:43:44;;;;;;;9.57;6.55;;;;;;;5.55;56.56;98133.16;4915623;29;20027;-76
2021/04/17 00:46:09;;;;;;;;;;;;;;;5.68;56.78;98144.41;4934481;29;20075;-76
2021/04/17 00:48:35;;;;;;;14.27;6.47;;;;;;;5.55;56.72;98133.16;4933297;29;20009;-76
2021/04/17 00:51:01;;;;;;;10.13;5.60;;;;;;;5.37;57.45;98135.19;4916353;29;20062;-76
2021/04/17 00:53:27;;;;;;;5.75;5.15;;;;;;;5.36;57.81;98127.28;4933139;29;20038;-77
2021/04/17 00:55:52;;;;;;;;;;;;;;;5.31;57.39;98133.50;4916514;29;20054;-76
2021/04/17 00:58:18;;;;;;;11.40;6.50;;;;;;;5.16;57.80;98125.22;4915628;29;20352;-76
2021/04/17 01:00:43;;;;;;;;;;;;;;;5.21;57.95;98124.44;4916638;29;20039;-76
2021/04/17 01:03:14;;;;;;;8.93;5.63;;;;;;;5.26;57.98;98127.22;4933285;29;19918;-76
2021/04/17 01:05:43;;;;;;;8.88;5.47;;;;;;;5.14;58.02;98123.81;4933420;29;20098;-76
2021/04/17 01:08:18;;;;;;;8.98;6.03;;;;;;;5.04;58.73;98121.03;4916326;29;20429;-76
2021/04/17 01:10:52;;;;;;;9.48;6.90;;;;;;;5.10;58.81;98120.00;4933418;29;20031;-76
2021/04/17 01:13:18;;;;;;;9.63;6.78;;;;;;;5.00;59.18;98120.72;4916240;29;20066;-76
2021/04/17 01:15:45;;;;;;;8.75;7.28;;;;;;;5.04;59.71;98131.88;4933726;29;20102;-76
2021/04/17 01:18:11;;;;;;;11.18;6.05;;;;;;;4.80;61.05;98125.91;4933989;29;20497;-76
2021/04/17 01:20:47;;;;;;;9.95;6.53;;;;;;;4.53;61.73;98120.47;4933326;29;20544;-75
2021/04/17 01:23:32;;;;;;;;;;;;;;;4.48;62.47;98119.59;4911422;29;20059;-76
2021/04/17 01:26:08;;;;;;;14.43;5.97;;;;;;;4.43;63.15;98120.34;4905490;29;19926;-76
2021/04/17 01:28:36;;;;;;;7.32;5.15;;;;;;;4.41;63.00;98111.66;4927178;29;20528;-76
2021/04/17 01:31:04;;;;;;;14.18;6.05;;;;;;;4.33;63.61;98112.91;4912362;29;20036;-76
2021/04/17 01:33:33;;;;;;;9.50;6.28;;;;;;;4.27;64.14;98111.19;4904588;29;20502;-76
2021/04/17 01:36:01;;;;;;;12.10;6.18;;;;;;;4.20;64.79;98115.16;4918422;29;20031;-76
2021/04/17 01:38:30;;;;;;;8.73;6.15;;;;;;;4.21;64.68;98114.91;4913596;29;20028;-76
2021/04/17 01:41:00;;;;;;;13.30;6.22;;;;;;;4.15;64.78;98123.22;4915358;29;20107;-76
2021/04/17 01:43:28;;;;;;;10.80;6.40;;;;;;;4.09;64.96;98121.50;4914302;29;20072;-76
2021/04/17 01:45:58;;;;;;;8.05;6.20;;;;;;;4.13;65.18;98109.94;4914597;29;20135;-76
2021/04/17 01:48:29;;;;;;;9.50;6.68;;;;;;;4.50;64.29;98117.44;4913348;29;20036;-76
2021/04/17 01:50:55;;;;;;;11.93;6.70;;;;;;;4.44;64.29;98121.16;4897054;29;20036;-77
2021/04/17 01:53:23;;;;;;;10.05;6.00;;;;;;;4.45;63.55;98118.19;4897398;29;20098;-75
2021/04/17 01:55:50;;;;;;;12.55;5.55;;;;;;;4.52;63.65;98118.00;4897446;29;20087;-76
2021/04/17 01:58:20;;;;;;;10.20;6.35;;;;;;;4.48;63.83;98123.09;4896698;29;20394;-76
2021/04/17 02:00:46;;;;;;;9.10;6.35;;;;;;;4.41;63.73;98116.25;4920334;29;20387;-75
2021/04/17 02:03:12;;;;;;;9.13;6.05;;;;;;;4.61;63.46;98116.47;4933466;29;20043;-76
2021/04/17 02:05:37;;;;;;;11.18;5.85;;;;;;;4.54;62.86;98122.09;4932891;29;20031;-76
2021/04/17 02:08:03;;;;;;;12.63;6.63;;;;;;;4.49;63.38;98113.91;4915877;29;20032;-76
2021/04/17 02:10:29;;;;;;;9.48;5.70;;;;;;;4.43;63.71;98105.97;4933337;29;20023;-76
2021/04/17 02:12:54;;;;;;;;;;;;;;;4.51;63.61;98108.25;4914664;29;20501;-76
2021/04/17 02:15:19;;;;;;;8.57;5.60;;;;;;;4.30;65.02;98099.88;4919251;29;19919;-76
2021/04/17 02:18:00;;;;;;;10.80;6.53;;;;;;;4.44;65.04;98110.31;4919630;29;20397;-76
2021/04/17 02:20:41;;;;;;;9.13;6.25;;;;;;;4.45;64.93;98106.56;4918118;29;20032;-76
2021/04/17 02:23:09;;;;;;;7.75;5.53;;;;;;;4.54;64.65;98105.03;4900307;29;20115;-77
2021/04/17 02:25:35;;;;;;;10.70;6.57;;;;;;;4.44;64.98;98100.31;4917161;29;20032;-77
2021/04/17 02:28:01;;;;;;;7.97;6.13;;;;;;;4.44;64.92;98102.19;4900504;29;20024;-76
2021/04/17 02:30:26;;;;;;;;;;;;;;;4.33;65.38;98093.94;4919119;29;20040;-77
2021/04/17 02:32:55;;;;;;;12.75;6.60;;;;;;;4.19;65.61;98092.69;4919215;29;19998;-76
2021/04/17 02:35:20;;;;;;;8.90;5.85;;;;;;;4.15;66.32;98088.84;4919225;29;20485;-76
2021/04/17 02:37:46;;;;;;;9.25;5.78;;;;;;;4.28;65.86;98083.06;4936315;29;20028;-77
2021/04/17 02:40:11;;;;;;;;;;;;;;;4.36;64.27;98084.50;4936281;29;20040;-75
2021/04/17 02:42:36;;;;;;;11.93;5.50;;;;;;;4.24;64.49;98086.50;4935886;29;19923;-77
2021/04/17 02:45:02;;;;;;;10.93;6.97;;;;;;;4.22;66.64;98089.50;4936457;29;20028;-75
2021/04/17 02:47:28;;;;;;;8.82;7.03;;;;;;;4.11;67.07;98085.00;4935839;29;20066;-76
2021/04/17 02:49:53;;;;;;;9.82;6.20;;;;;;;3.97;67.50;98086.44;4935502;29;20481;-76
2021/04/17 02:52:18;;;;;;;;;;;;;;;3.86;68.45;98083.81;4936452;29;20023;-75
2021/04/17 02:54:44;;;;;;;8.80;6.00;;;;;;;3.74;69.38;98078.53;4936653;29;19914;-75
2021/04/17 02:57:09;;;;;;;10.27;6.22;;;;;;;3.74;69.42;98075.81;4936252;29;20389;-75
2021/04/17 02:59:35;;;;;;;;;;;;;;;3.56;70.32;98079.63;4919402;29;20051;-76
2021/04/17 03:02:00;;;;;;;10.95;8.10;;;;;;;3.44;70.99;98061.84;4918710;29;20287;-76
2021/04/17 03:04:26;;;;;;;8.55;6.40;;;;;;;3.54;70.81;98073.63;4919481;29;20051;-76
2021/04/17 03:06:52;;;;;;;9.05;6.65;;;;;;;3.46;71.02;98067.81;4936230;29;20366;-76
2021/04/17 03:09:17;;;;;;;8.52;6.63;;;;;;;3.58;70.90;98071.25;4935854;29;20048;-76
2021/04/17 03:11:42;;;;;;;;;;;;;;;3.53;71.39;98068.47;4919112;29;20043;-76
2021/04/17 03:14:08;;;;;;;8.10;6.32;;;;;;;3.41;72.01;98073.16;4918515;29;20361;-76
2021/04/17 03:16:33;;;;;;;;;;;;;;;3.62;71.18;98075.09;4936419;29;20087;-76
2021/04/17 03:18:58;;;;;;;;;;;;;;;3.39;71.94;98064.47;4918768;29;19915;-76
2021/04/17 03:21:24;;;;;;;;;;;;;;;3.26;72.70;98072.94;4934981;29;19914;-76
2021/04/17 03:23:49;;;;;;;;;;;;;;;3.56;71.71;98066.09;4932877;29;19919;-76
2021/04/17 03:26:14;;;;;;;;;;;;;;;3.50;71.83;98066.28;4934194;29;19923;-77
2021/04/17 03:28:40;;;;;;;;;;;;;;;3.44;72.23;98068.09;4917073;29;19966;-76
2021/04/17 03:31:05;;;;;;;;;;;;;;;3.28;72.93;98063.50;4918829;29;20321;-77
2021/04/17 03:33:30;;;;;;;;;;;;;;;3.30;72.81;98068.66;4918353;29;20514;-76
2021/04/17 03:35:55;;;;;;;;;;;;;;;3.25;73.19;98069.41;4935626;29;19935;-76
2021/04/17 03:38:21;;;;;;;;;;;;;;;3.13;73.28;98072.16;4935501;29;20910;-76
2021/04/17 03:40:47;;;;;;;;;;;;;;;3.29;72.88;98069.72;4935410;29;20295;-76
2021/04/17 03:43:13;;;;;;;;;;;;;;;3.39;72.26;98067.16;4935608;29;20384;-76
2021/04/17 03:45:38;;;;;;;;;;;;;;;3.26;72.59;98067.53;4936069;29;19958;-76
2021/04/17 03:48:03;;;;;;;;;;;;;;;3.13;73.43;98066.75;4918623;29;19962;-76
2021/04/17 03:50:29;;;;;;;;;;;;;;;3.27;73.53;98071.84;4934898;29;19938;-76
2021/04/17 03:52:54;;;;;;;;;;;;;;;3.49;72.30;98064.63;4935267;29;19918;-75
2021/04/17 03:55:19;;;;;;;;;;;;;;;3.37;72.94;98067.44;4935646;29;19922;-76
2021/04/17 03:57:45;;;;;;;;;;;;;;;3.44;72.88;98068.09;4935452;29;19921;-76
2021/04/17 04:00:12;;;;;;;;;;;;;;;3.32;73.27;98071.94;4918044;29;20368;-75
2021/04/17 04:02:37;;;;;;;;;;;;;;;3.13;74.22;98071.38;4935214;29;19915;-76
2021/04/17 04:05:03;;;;;;;;;;;;;;;3.04;74.16;98068.22;4923099;29;19937;-75
2021/04/17 04:07:29;;;;;;;;;;;;;;;3.00;74.23;98077.91;4899210;29;19923;-76
2021/04/17 04:09:54;;;;;;;;;;;;;;;2.89;74.24;98076.06;4931215;29;20018;-76
2021/04/17 04:12:19;;;;;;;;;;;;;;;3.11;73.22;98078.88;4935303;29;19974;-75
2021/04/17 04:14:45;;;;;;;;;;;;;;;2.96;73.66;98076.75;4934964;29;20269;-76
2021/04/17 04:17:10;;;;;;;;;;;;;;;2.91;73.88;98073.97;4934735;29;20013;-77
2021/04/17 04:19:35;;;;;;;;;;;;;;;2.87;73.88;98080.06;4933106;29;20369;-76
2021/04/17 04:22:00;;;;;;;;;;;;;;;3.04;73.20;98079.03;4933565;29;19953;-76
2021/04/17 04:24:26;;;;;;;;;;;;;;;3.28;72.35;98078.91;4933511;29;19919;-77
2021/04/17 04:26:51;;;;;;;;;;;;;;;3.28;72.27;98085.13;4934443;29;19945;-76
2021/04/17 04:29:16;;;;;;;;;;;;;;;3.54;71.03;98084.44;4907494;29;19916;-76
2021/04/17 04:31:42;;;;;;;;;;;;;;;3.49;70.78;98078.16;4932311;29;19929;-76
2021/04/17 04:34:07;;;;;;;;;;;;;;;3.57;70.80;98085.84;4927127;29;19919;-76
2021/04/17 04:36:32;;;;;;;;;;;;;;;3.06;72.29;98086.91;4913777;29;20433;-76
2021/04/17 04:38:58;;;;;;;;;;;;;;;3.12;72.52;98092.16;4914507;29;19919;-76
2021/04/17 04:41:23;;;;;;;;;;;;;;;2.97;73.63;98093.78;4922716;29;19922;-76
2021/04/17 04:43:48;;;;;;;;;;;;;;;3.07;72.91;98092.03;4932264;29;19925;-76
2021/04/17 04:46:14;;;;;;;;;;;;;;;2.94;73.61;98088.84;4933573;29;20431;-76
2021/04/17 04:48:39;;;;;;;;;;;;;;;3.00;73.36;98094.09;4933520;29;19914;-75
2021/04/17 04:51:04;;;;;;;;;;;;;;;3.06;73.37;98098.53;4934432;29;19919;-75
2021/04/17 04:53:30;;;;;;;;;;;;;;;3.29;72.47;98094.06;4933602;29;19929;-76
2021/04/17 04:55:55;;;;;;;;;;;;;;;3.37;72.12;98096.34;4933058;29;19925;-76
2021/04/17 04:58:20;;;;;;;;;;;;;;;3.29;72.39;98091.34;4932707;29;19915;-76
2021/04/17 05:00:46;;;;;;;;;;;;;;;3.23;72.92;98098.53;4934810;29;20324;-75
2021/04/17 05:03:11;;;;;;;;;;;;;;;3.27;72.55;98088.06;4933250;29;19957;-75
2021/04/17 05:05:36;;;;;;;;;;;;;;;3.35;72.47;98087.66;4932857;29;21159;-76
2021/04/17 05:08:02;;;;;;;;;;;;;;;3.26;72.52;98089.13;4933649;29;19919;-74
2021/04/17 05:10:27;;;;;;;;;;;;;;;3.44;72.21;98088.88;4933247;29;20285;-75
2021/04/17 05:12:52;;;;;;;;;;;;;;;3.44;72.12;98099.69;4933569;29;20028;-75
2021/04/17 05:15:18;;;;;;;;;;;;;;;3.35;72.21;98090.38;4928449;29;20002;-75
2021/04/17 05:17:43;;;;;;;;;;;;;;;3.52;71.99;98092.00;4915564;29;19966;-75
2021/04/17 05:20:09;;;;;;;;;;;;;;;3.52;72.10;98088.47;4913743;29;19963;-75
2021/04/17 05:22:34;;;;;;;;;;;;;;;3.69;71.80;98081.16;4917622;29;19913;-75
2021/04/17 05:24:59;;;;;;;;;;;;;;;3.78;71.06;98090.50;4934040;29;19990;-76
2021/04/17 05:27:24;;;;;;;;;;;;;;;3.82;71.39;98086.22;4933297;29;20005;-76
2021/04/17 05:29:50;;;;;;;;;;;;;;;3.98;70.97;98090.75;4933297;29;19922;-76
2021/04/17 05:32:15;;;;;;;;;;;;;;;4.02;70.71;98089.22;4933812;29;19930;-76
2021/04/17 05:34:41;;;;;;;;;;;;;;;4.19;70.85;98087.28;4934642;29;19915;-75
2021/04/17 05:37:06;;;;;;;;;;;;;;;4.13;70.04;98088.28;4934129;29;20356;-75
2021/04/17 05:39:31;;;;;;;;;;;;;;;4.19;69.78;98081.03;4933223;29;20432;-76
2021/04/17 05:41:56;;;;;;;;;;;;;;;4.34;69.69;98089.34;4933567;29;19903;-75
2021/04/17 05:44:22;;;;;;;;;;;;;;;4.21;70.08;98085.13;4932658;29;19919;-76
2021/04/17 05:46:47;;;;;;;;;;;;;;;4.25;70.22;98086.28;4934046;29;19926;-76
2021/04/17 05:49:13;;;;;;;;;;;;;;;4.30;69.55;98089.03;4933669;29;19962;-75
2021/04/17 05:51:39;;;;;;;;;;;;;;;4.40;69.89;98085.63;4932700;29;19925;-75
2021/04/17 05:54:05;;;;;;;;;;;;;;;4.70;69.43;98083.28;4933792;29;19914;-76
2021/04/17 05:56:31;;;;;;;;;;;;;;;4.95;69.00;98084.63;4933473;29;19930;-77
2021/04/17 05:58:56;;;;;;;;;;;;;;;4.82;67.94;98080.44;4932759;29;20313;-76
2021/04/17 06:01:22;;;;;;;;;;;;;;;4.74;68.75;98089.00;4931968;29;19946;-76
2021/04/17 06:03:47;;;;;;;;;;;;;;;4.86;68.28;98081.53;4933385;29;19968;-76
2021/04/17 06:06:12;;;;;;;;;;;;;;;4.79;68.25;98086.38;4933245;29;19918;-75
2021/04/17 06:08:38;;;;;;;;;;;;;;;5.02;67.83;98090.63;4933647;29;20351;-74
2021/04/17 06:11:05;;;;;;;;;;;;;;;5.05;67.43;98080.09;4932182;29;20387;-76
2021/04/17 06:13:30;;;;;;;;;;;;;;;5.17;66.80;98086.19;4933591;29;19929;-75
2021/04/17 06:15:56;;;;;;;;;;;;;;;5.18;66.73;98085.09;4933705;29;19934;-75
2021/04/17 06:18:21;;;;;;;;;;;;;;;5.45;66.21;98074.19;4931710;29;19918;-75
2021/04/17 06:20:46;;;;;;;;;;;;;;;5.51;66.48;98070.47;4931734;29;19921;-75
2021/04/17 06:23:12;;;;;;;;;;;;;;;5.49;66.98;98074.50;4933507;29;19919;-75
2021/04/17 06:25:37;;;;;;;;;;;;;;;5.68;66.43;98075.75;4933676;29;19915;-76
2021/04/17 06:28:02;;;;;;;;;;;;;;;5.75;65.88;98073.63;4928525;29;20324;-76
2021/04/17 06:30:27;;;;;;;;;;;;;;;6.17;65.31;98070.94;4923726;29;20032;-76
2021/04/17 06:32:53;;;;;;;;;;;;;;;6.24;64.60;98068.75;4920129;29;19919;-76
2021/04/17 06:35:18;;;;;;;;;;;;;;;6.25;64.65;98068.50;4922700;29;20054;-77
2021/04/17 06:37:43;;;;;;;;;;;;;;;6.22;64.43;98066.31;4922347;29;19934;-75
2021/04/17 06:40:09;;;;;;;;;;;;;;;6.27;64.41;98070.94;4921623;29;19922;-78
2021/04/17 06:42:36;;;;;;;;;;;;;;;6.38;63.53;98072.66;4923405;29;19982;-76
2021/04/17 06:45:01;;;;;;;;;;;;;;;6.33;63.58;98070.72;4920873;29;20160;-76
2021/04/17 06:47:27;;;;;;;;;;;;;;;6.73;62.79;98067.34;4924426;29;20391;-76
2021/04/17 06:49:52;;;;;;;;;;;;;;;6.84;62.19;98065.44;4921157;29;19966;-75
2021/04/17 06:52:20;;;;;;;;;;;;;;;7.11;60.09;98070.69;4922994;29;19921;-76
2021/04/17 06:54:46;;;;;;;;;;;;;;;6.96;60.35;98069.56;4922223;29;19919;-76
2021/04/17 06:57:12;;;;;;;;;;;;;;;6.93;59.34;98064.66;4926633;29;19915;-75
2021/04/17 06:59:37;;;;;;;;;;;;;;;7.19;58.94;98062.78;4926589;29;19922;-76
2021/04/17 07:02:03;;;;;;;;;;;;;;;6.91;58.26;98060.56;4926694;29;19914;-75
2021/04/17 07:04:29;;;;;;;;;;;;;;;6.72;59.53;98062.97;4925376;29;20002;-75
2021/04/17 07:06:54;;;;;;;;;;;;;;;6.89;59.05;98051.88;4922536;29;20715;-76
2021/04/17 07:09:20;;;;;;;;;;;;;;;6.96;59.06;98061.41;4915938;29;19923;-76
2021/04/17 07:11:46;;;;;;;;;;;;;;;7.07;58.14;98058.69;4926465;29;20373;-76
2021/04/17 07:14:13;;;;;;;;;;;;;;;7.57;57.39;98057.91;4907234;29;19919;-76
2021/04/17 07:16:55;;;;;;;;;;;;;;;7.41;58.42;98057.91;4925876;29;19930;-75
2021/04/17 07:19:21;;;;;;;;;;;;;;;7.57;57.83;98049.72;4906577;29;19925;-77
2021/04/17 07:21:47;;;;;;;;;;;;;;;7.54;56.94;98051.91;4924733;29;19926;-75
2021/04/17 07:24:22;;;;;;;;;;;;;;;7.22;58.06;98055.97;4928749;29;20296;-77
2021/04/17 07:26:48;;;;;;;;;;;;;;;7.42;57.86;98053.28;4908835;29;20348;-76
2021/04/17 07:29:14;;;;;;;;;;;;;;;7.55;57.32;98044.53;4923118;29;19927;-75
2021/04/17 07:31:46;;;;;;;;;;;;;;;7.75;57.01;98049.97;4903387;29;19919;-76
2021/04/17 07:34:13;;;;;;;;;;;;;;;7.83;56.32;98051.34;4925877;29;20009;-75
2021/04/17 07:36:58;;;;;;;;;;;;;;;7.77;56.74;98047.78;4925809;29;19918;-75
2021/04/17 07:39:34;;;;;;;;;;;;;;;7.95;56.24;98051.84;4908166;29;19918;-75
2021/04/17 07:42:04;;;;;;;;;;;;;;;8.31;55.46;98047.13;4928279;29;19977;-75
2021/04/17 07:44:31;;;;;;;;;;;;;;;8.84;53.86;98051.78;4908218;29;19970;-76
2021/04/17 07:46:56;;;;;;;;;;;;;;;8.59;54.40;98050.00;4908005;29;20531;-76
2021/04/17 07:49:22;;;;;;;;;;;;;;;8.58;53.75;98045.63;4925842;29;19914;-76
2021/04/17 07:51:54;;;;;;;;;;;;;;;8.45;53.75;98054.44;4924834;29;19919;-76
2021/04/17 07:54:19;;;;;;;;;;;;;;;8.63;53.29;98055.72;4906330;29;20677;-76
2021/04/17 07:56:45;;;;;;;;;;;;;;;9.22;52.09;98043.88;4925784;29;19918;-76
2021/04/17 07:59:10;;;;;;;;;;;;;;;9.20;50.50;98046.91;4906468;29;19925;-76
2021/04/17 08:01:36;;;;;;;;;;;;;;;9.21;50.40;98051.25;4907057;29;20010;-76
2021/04/17 08:04:02;;;;;;;;;;;;;;;9.08;51.35;98043.75;4907374;29;19918;-76
2021/04/17 08:06:28;;;;;;;;;;;;;;;8.94;51.26;98045.44;4906596;29;19971;-76
2021/04/17 08:08:54;;;;;;;;;;;;;;;8.55;52.08;98042.69;4923854;29;19918;-76
2021/04/17 08:11:20;;;;;;;;;;;;;;;8.55;52.11;98054.38;4925038;29;19977;-76
2021/04/17 08:13:47;;;;;;;;;;;;;;;8.91;51.78;98044.09;4905598;29;19969;-76
2021/04/17 08:16:12;;;;;;;;;;;;;;;8.90;51.70;98039.75;4907251;29;19915;-76
2021/04/17 08:18:38;;;;;;;;;;;;;;;9.25;50.83;98038.69;4925211;29;20017;-76
2021/04/17 08:21:04;;;;;;;;;;;;;;;9.07;51.74;98036.63;4906233;29;19911;-76
2021/04/17 08:23:30;;;;;;;;;;;;;;;9.68;49.70;98032.31;4925449;29;19919;-76
2021/04/17 08:25:56;;;;;;;;;;;;;;;9.38;50.85;98029.84;4906823;29;19918;-76
2021/04/17 08:28:23;;;;;;;;;;;;;;;9.14;50.68;98028.97;4925729;29;19996;-76
2021/04/17 08:30:48;;;;;;;;;;;;;;;9.76;49.94;98019.13;4904632;29;20018;-76
2021/04/17 08:33:15;;;;;;;;;;;;;;;9.78;48.80;98019.66;4898959;29;20005;-75
2021/04/17 08:35:40;;;;;;;;;;;;;;;9.83;48.72;98019.63;4899538;29;20316;-76
2021/04/17 08:38:13;;;;;;;;;;;;;;;9.93;48.42;98009.38;4897598;29;19924;-77
2021/04/17 08:40:38;;;;;;;;;;;;;;;10.47;48.10;98017.25;4915588;29;19925;-75
2021/04/17 08:43:04;;;;;;;;;;;;;;;10.68;46.62;98012.34;4916023;29;20305;-75
2021/04/17 08:45:30;;;;;;;;;;;;;;;11.42;44.85;98003.25;4918122;29;19918;-75
2021/04/17 08:48:00;;;;;;;;;;;;;;;11.35;44.61;98002.00;4918548;29;20404;-76
2021/04/17 08:50:28;;;;;;;;;;;;;;;11.11;44.27;97999.38;4920784;29;19933;-75
2021/04/17 08:52:57;;;;;;;;;;;;;;;11.32;44.05;97991.66;4922350;29;19918;-76
2021/04/17 08:55:23;;;;;;;;;;;;;;;11.92;43.07;97993.34;4919887;29;19926;-76
2021/04/17 08:58:07;;;;;;;;;;;;;;;11.34;43.83;97986.72;4926498;29;19961;-76
2021/04/17 09:00:33;;;;;;;;;;;;;;;10.95;44.53;97981.56;4923020;29;19926;-76
2021/04/17 09:02:58;;;;;;;;;;;;;;;10.98;42.75;97980.97;4922996;29;19918;-78
2021/04/17 09:05:41;;;;;;;;;;;;;;;11.15;42.82;97979.31;4922317;29;19923;-76
2021/04/17 09:08:11;;;;;;;;;;;;;;;12.08;40.88;97982.91;4917391;29;19937;-78
2021/04/17 09:10:38;;;;;;;;;;;;;;;12.20;40.78;97977.72;4908005;29;20005;-78
2021/04/17 09:13:09;;;;;;;;;;;;;;;12.44;40.53;97972.81;4914179;29;19919;-77
2021/04/17 09:15:53;;;;;;;;;;;;;;;11.78;41.49;97973.31;4923102;29;19914;-76
2021/04/17 09:18:37;;;;;;;;;;;;;;;12.08;41.14;97974.69;4930393;29;20293;-77
2021/04/17 09:21:09;;;;;;;;;;;;;;;12.67;40.21;97970.97;4917639;29;19921;-73
2021/04/17 09:23:42;;;;;;;;;;;;;;;13.60;37.51;97967.34;4931377;29;19922;-73
2021/04/17 09:26:08;;;;;;;;;;;;;;;16.07;34.30;97964.41;4896798;29;19937;-73
2021/04/17 09:28:35;;;;;;;;;;;;;;;14.41;35.67;97963.19;4916289;29;20006;-73
2021/04/17 09:31:00;;;;;;;;;;;;;;;13.51;36.90;97951.94;4923407;29;20286;-74
2021/04/17 09:33:26;;;;;;;;;;;;;;;14.17;35.98;97951.78;4924409;29;19954;-73
2021/04/17 09:35:51;;;;;;;;;;;;;;;12.98;37.87;97958.16;4932986;29;20141;-74
2021/04/17 09:38:16;;;;;;;;;;;;;;;13.60;37.88;97950.03;4932845;29;19940;-73
2021/04/17 09:40:42;;;;;;;;;;;;;;;13.78;36.96;97960.81;4912303;29;20462;-75
2021/04/17 09:43:08;;;;;;;;;;;;;;;13.20;37.83;97944.47;4923421;29;19930;-75
2021/04/17 09:45:39;;;;;;;;;;;;;;;13.24;38.15;97929.00;4904846;29;19918;-74
2021/04/17 09:48:08;;;;;;;;;;;;;;;12.93;38.85;97941.81;4924931;29;19926;-75
2021/04/17 09:50:34;;;;;;;;;;;;;;;13.35;37.80;97935.03;4925914;29;19923;-75
2021/04/17 09:53:29;;;;;;;;;;;;;;;13.09;38.46;97931.31;4907353;29;19923;-75
2021/04/17 09:55:57;;;;;;;;;;;;;;;14.67;35.51;97918.38;4905276;29;20017;-75
2021/04/17 09:58:23;;;;;;;;;;;;;;;15.97;34.06;97915.94;4921680;29;20466;-74
2021/04/17 10:00:49;;;;;;;;;;;;;;;15.68;33.59;97906.81;4921423;29;19965;-74
2021/04/17 10:03:24;;;;;;;;;;;;;;;15.12;34.42;97913.38;4915180;29;20432;-74
2021/04/17 10:05:49;;;;;;;;;;;;;;;16.36;32.95;97931.31;4912380;29;19923;-74
2021/04/17 10:08:25;;;;;;;;;;;;;;;15.59;32.53;97923.38;4913978;29;19969;-78
2021/04/17 10:10:50;;;;;;;;;;;;;;;14.68;34.18;97914.50;4932425;29;20012;-79
2021/04/17 10:13:34;;;;;;;;;;;;;;;15.83;32.80;97907.06;4932879;29;20312;-77
2021/04/17 10:16:00;;;;;;;;;;;;;;;16.42;32.01;97904.31;4932575;29;19914;-74
2021/04/17 10:18:26;;;;;;;;;;;;;;;16.46;32.00;97899.75;4915183;29;20391;-75
2021/04/17 10:20:51;;;;;;;;;;;;;;;17.24;30.12;97897.22;4915592;29;19962;-75
2021/04/17 10:23:16;;;;;;;;;;;;;;;16.70;31.30;97888.88;4915397;29;19918;-76
2021/04/17 10:25:43;;;;;;;;;;;;;;;16.27;31.28;97888.34;4932276;29;19921;-75
2021/04/17 10:28:18;;;;;;;;;;;;;;;16.18;30.57;97884.84;4931533;29;19923;-75
2021/04/17 10:30:45;;;;;;;;;;;;;;;15.09;33.13;97878.22;4930642;29;19923;-75
2021/04/17 10:33:18;;;;;;;;;;;;;;;16.78;30.41;97868.69;4919048;29;19934;-75
2021/04/17 10:35:44;;;;;;;;;;;;;;;15.10;31.68;97872.38;4940519;29;19943;-76
2021/04/17 10:38:09;;;;;;;;;;;;;;;15.35;32.29;97868.75;4939401;29;19919;-76
2021/04/17 10:40:35;;;;;;;;;;;;;;;15.01;31.96;97866.88;4918964;29;19918;-76
2021/04/17 10:43:03;;;;;;;;;;;;;;;14.81;33.05;97856.53;4935919;29;19970;-76
2021/04/17 10:45:28;;;;;;;;;;;;;;;14.03;34.41;97856.75;4935543;29;20339;-75
2021/04/17 10:48:04;;;;;;;;;;;;;;;13.12;36.23;97849.13;4935333;29;19919;-75
2021/04/17 10:50:34;;;;;;;;;;;;;;;13.47;35.76;97846.53;4917283;29;19973;-76
2021/04/17 10:53:00;;;;;;;;;;;;;;;12.90;36.74;97855.38;4918451;29;19919;-75
2021/04/17 10:55:45;;;;;;;;;;;;;;;12.34;38.93;97849.63;4935392;29;20304;-77
2021/04/17 10:58:23;;;;;;;;;;;;;;;11.81;38.69;97852.94;4911693;29;19922;-75
2021/04/17 11:00:59;;;;;;;;;;;;;;;11.64;39.11;97851.91;4933773;29;20014;-77
2021/04/17 11:03:27;;;;;;;;;;;;;;;11.98;38.88;97835.88;4933925;29;19918;-76
2021/04/17 11:05:52;;;;;;;;;;;;;;;12.03;39.07;97832.25;4934353;29;20355;-76
2021/04/17 11:08:25;;;;;;;;;;;;;;;11.96;39.63;97826.34;4932783;29;20022;-75
2021/04/17 11:10:51;;;;;;;;;;;;;;;11.70;39.78;97829.63;4912443;29;20073;-76
2021/04/17 11:13:29;;;;;;;;;;;;;;;12.08;39.47;97824.69;4911483;29;20765;-74
2021/04/17 11:15:54;;;;;;;;;;;;;;;12.14;39.04;97822.66;4926053;29;19973;-76
2021/04/17 11:18:20;;;;;;;;;;;;;;;12.02;39.77;97825.13;4903823;29;19923;-76
2021/04/17 11:20:45;;;;;;;;;;;;;;;12.10;39.63;97824.38;4904571;29;20333;-76
2021/04/17 11:23:29;;;;;;;;;;;;;;;12.63;38.65;97819.84;4925102;29;19923;-76
2021/04/17 11:25:54;;;;;;;;;;;;;;;12.76;38.09;97818.97;4905370;29;20391;-76
2021/04/17 11:28:20;;;;;;;;;;;;;;;12.59;38.88;97812.56;4932252;29;19922;-76
2021/04/17 11:30:45;;;;;;;;;;;;;;;12.20;39.31;97810.44;4915190;29;19947;-77
2021/04/17 11:33:10;;;;;;;;;;;;;;;11.91;40.19;97815.47;4901146;29;19930;-76
2021/04/17 11:35:36;;;;;;;;;;;;;;;11.64;41.45;97816.31;4919593;29;19921;-75
2021/04/17 11:38:01;;;;;;;;;;;;;;;11.78;40.93;97815.19;4919595;29;19963;-76
2021/04/17 11:40:26;;;;;;;;;;;;;;;11.67;42.25;97813.78;4917274;29;19915;-76
2021/04/17 11:42:52;;;;;;;;;;;;;;;11.75;40.99;97809.50;4904146;29;19915;-76
2021/04/17 11:45:20;;;;;;;;;;;;;;;11.74;40.84;97822.44;4921662;29;19922;-77
2021/04/17 11:47:45;;;;;;;;;;;;;;;11.74;41.12;97825.16;4900895;29;19915;-76
2021/04/17 11:50:10;;;;;;;;;;;;;;;11.69;41.02;97810.72;4899113;29;20299;-76
2021/04/17 11:52:36;;;;;;;;;;;;;;;11.82;40.65;97810.72;4907597;29;20021;-75
2021/04/17 11:55:01;;;;;;;;;;;;;;;11.68;41.29;97806.38;4898626;29;19970;-76
2021/04/17 11:57:26;;;;;;;;;;;;;;;11.76;41.39;97811.97;4916972;29;19919;-76
2021/04/17 11:59:52;;;;;;;;;;;;;;;12.40;40.63;97807.25;4918764;29;19919;-76
2021/04/17 12:02:17;;;;;;;;;;;;;;;12.64;39.84;97813.22;4920750;29;20388;-76
2021/04/17 12:04:42;;;;;;;;;;;;;;;12.64;39.37;97798.69;4917925;29;20370;-76
2021/04/17 12:07:07;;;;;;;;;;;;;;;12.61;39.06;97799.31;4935193;29;19914;-76
2021/04/17 12:09:33;;;;;;;;;;;;;;;12.48;39.01;97801.00;4924941;29;20704;-75
2021/04/17 12:11:58;;;;;;;;;;;;;;;12.46;39.74;97796.94;4931308;29;19921;-75
2021/04/17 12:14:23;;;;;;;;;;;;;;;12.65;40.32;97800.31;4951676;29;19982;-77
2021/04/17 12:16:48;;;;;;;;;;;;;;;12.41;39.87;97797.06;4934559;29;19926;-75
2021/04/17 12:19:14;;;;;;;;;;;;;;;12.55;39.95;97793.16;4917704;29;19925;-77
2021/04/17 12:21:39;;;;;;;;;;;;;;;12.45;39.74;97796.13;4934457;29;20017;-76
2021/04/17 12:24:04;;;;;;;;;;;;;;;12.50;39.99;97781.50;4933523;29;20364;-75
2021/04/17 12:26:30;;;;;;;;;;;;;;;11.93;40.93;97789.41;4937740;29;19918;-77
2021/04/17 12:28:55;;;;;;;;;;;;;;;12.01;40.74;97776.88;4955486;29;19914;-76
2021/04/17 12:31:22;;;;;;;;;;;;;;;12.45;39.48;97776.94;4951136;29;19923;-75
2021/04/17 12:33:47;;;;;;;;;;;;;;;12.46;40.09;97773.06;4933894;29;20017;-75
2021/04/17 12:36:12;;;;;;;;;;;;;;;12.33;40.10;97776.69;4916521;29;20009;-77